createdAt,value
2022-12-23T00:01:07.750Z,11.40
2022-12-23T00:02:28.308Z,11.40
2022-12-23T00:03:48.925Z,11.40
2022-12-23T00:05:09.932Z,11.40
2022-12-23T00:06:30.718Z,11.40
2022-12-23T00:07:51.043Z,11.40
2022-12-23T00:09:11.800Z,11.40
2022-12-23T00:10:33.893Z,11.30
2022-12-23T00:11:55.506Z,11.30
2022-12-23T00:13:16.180Z,11.40
2022-12-23T00:14:36.638Z,11.40
2022-12-23T00:16:07.752Z,11.30
2022-12-23T00:17:28.261Z,11.30
2022-12-23T00:18:48.945Z,11.30
2022-12-23T00:20:11.501Z,11.40
2022-12-23T00:21:31.901Z,11.40
2022-12-23T00:22:52.352Z,11.40
2022-12-23T00:24:12.891Z,11.40
2022-12-23T00:25:34.459Z,11.40
2022-12-23T00:26:56.402Z,11.40
2022-12-23T00:28:18.402Z,11.40
2022-12-23T00:29:38.728Z,11.30
2022-12-23T00:31:01.610Z,11.40
2022-12-23T00:32:22.338Z,11.30
2022-12-23T00:33:44.699Z,11.30
2022-12-23T00:35:05.985Z,11.30
2022-12-23T00:36:28.023Z,11.30
2022-12-23T00:37:49.067Z,11.30
2022-12-23T00:39:12.400Z,11.20
2022-12-23T00:40:33.013Z,11.30
2022-12-23T00:41:53.228Z,11.30
2022-12-23T00:43:15.151Z,11.30
2022-12-23T00:44:35.904Z,11.40
2022-12-23T00:45:56.530Z,11.30
2022-12-23T00:47:17.037Z,11.30
2022-12-23T00:48:37.586Z,11.30
2022-12-23T00:49:58.219Z,11.40
2022-12-23T00:51:18.848Z,11.40
2022-12-23T00:52:39.662Z,11.30
2022-12-23T00:54:00.653Z,11.40
2022-12-23T00:55:21.265Z,11.40
2022-12-23T00:56:41.830Z,11.40
2022-12-23T00:58:02.545Z,11.40
2022-12-23T00:59:24.459Z,11.40
2022-12-23T01:00:45.926Z,11.40
2022-12-23T01:02:07.315Z,11.30
2022-12-23T01:03:28.630Z,11.30
2022-12-23T01:04:49.198Z,11.40
2022-12-23T01:06:09.925Z,11.30
2022-12-23T01:07:30.694Z,11.30
2022-12-23T01:08:51.321Z,11.30
2022-12-23T01:10:11.992Z,11.40
2022-12-23T01:11:32.599Z,11.40
2022-12-23T01:12:53.075Z,11.40
2022-12-23T01:14:13.702Z,11.40
2022-12-23T01:15:35.802Z,11.30
2022-12-23T01:16:56.146Z,11.30
2022-12-23T01:18:16.817Z,11.30
2022-12-23T01:19:37.284Z,11.30
2022-12-23T01:21:01.771Z,11.40
2022-12-23T01:22:22.423Z,11.30
2022-12-23T01:23:43.100Z,11.20
2022-12-23T01:25:03.742Z,11.30
2022-12-23T01:26:24.107Z,11.30
2022-12-23T01:27:44.712Z,11.30
2022-12-23T01:29:05.531Z,11.30
2022-12-23T01:30:26.398Z,11.40
2022-12-23T01:31:48.289Z,11.40
2022-12-23T01:33:09.136Z,11.50
2022-12-23T01:34:36.082Z,11.50
2022-12-23T01:36:00.244Z,11.50
2022-12-23T01:37:20.670Z,11.40
2022-12-23T01:38:41.447Z,11.40
2022-12-23T01:40:02.005Z,11.40
2022-12-23T01:41:24.773Z,11.40
2022-12-23T01:42:45.065Z,11.30
2022-12-23T01:44:38.967Z,11.40
2022-12-23T01:45:59.596Z,11.40
2022-12-23T01:47:24.707Z,11.50
2022-12-23T01:48:47.042Z,11.40
2022-12-23T01:50:10.904Z,11.40
2022-12-23T01:51:31.770Z,11.40
2022-12-23T01:53:02.949Z,11.50
2022-12-23T01:54:27.356Z,11.40
2022-12-23T01:55:51.065Z,11.50
2022-12-23T01:57:12.195Z,11.50
2022-12-23T01:58:35.250Z,11.40
2022-12-23T01:59:55.995Z,11.40
2022-12-23T02:01:16.869Z,11.50
2022-12-23T02:02:41.238Z,11.50
2022-12-23T02:04:05.296Z,11.40
2022-12-23T02:05:26.087Z,11.40
2022-12-23T02:06:49.094Z,11.40
2022-12-23T02:08:09.891Z,11.40
2022-12-23T02:09:32.282Z,11.40
2022-12-23T02:11:13.307Z,11.40
2022-12-23T02:12:43.399Z,11.40
2022-12-23T02:14:15.191Z,11.40
2022-12-23T02:15:36.699Z,11.40
2022-12-23T02:17:01.984Z,11.40
2022-12-23T02:18:50.359Z,11.40
2022-12-23T02:20:30.791Z,11.30
2022-12-23T02:22:09.104Z,11.30
2022-12-23T02:24:05.036Z,11.20
2022-12-23T02:25:39.707Z,11.20
2022-12-23T02:27:12.276Z,11.20
2022-12-23T02:28:59.642Z,11.30
2022-12-23T02:30:35.046Z,11.20
2022-12-23T02:31:58.450Z,11.20
2022-12-23T02:33:31.245Z,11.10
2022-12-23T02:34:54.260Z,11.20
2022-12-23T02:36:23.501Z,11.20
2022-12-23T02:37:49.624Z,11.30
2022-12-23T02:39:18.559Z,11.30
2022-12-23T02:40:42.755Z,11.30
2022-12-23T02:42:06.459Z,11.30
2022-12-23T02:43:31.529Z,11.30
2022-12-23T02:44:56.820Z,11.30
2022-12-23T02:46:21.495Z,11.20
2022-12-23T02:47:46.607Z,11.30
2022-12-23T02:49:10.904Z,11.30
2022-12-23T02:50:33.935Z,11.30
2022-12-23T02:51:55.208Z,11.40
2022-12-23T02:53:19.799Z,11.40
2022-12-23T02:54:44.390Z,11.40
2022-12-23T02:56:06.766Z,11.50
2022-12-23T02:57:29.651Z,11.40
2022-12-23T02:58:54.625Z,11.40
2022-12-23T03:00:16.277Z,11.50
2022-12-23T03:01:39.068Z,11.50
2022-12-23T03:02:59.682Z,11.50
2022-12-23T03:04:20.117Z,11.50
2022-12-23T03:05:43.452Z,11.50
2022-12-23T03:07:07.644Z,11.50
2022-12-23T03:08:32.457Z,11.50
2022-12-23T03:09:59.243Z,11.60
2022-12-23T03:11:19.662Z,11.50
2022-12-23T03:12:47.212Z,11.60
2022-12-23T03:14:27.455Z,11.60
2022-12-23T03:15:55.358Z,11.50
2022-12-23T03:17:30.891Z,11.50
2022-12-23T03:19:02.846Z,11.50
2022-12-23T03:20:27.358Z,11.50
2022-12-23T03:21:53.111Z,11.50
2022-12-23T03:23:20.451Z,11.40
2022-12-23T03:24:47.186Z,11.50
2022-12-23T03:26:10.816Z,11.50
2022-12-23T03:27:34.632Z,11.40
2022-12-23T03:28:57.281Z,11.50
2022-12-23T03:30:19.100Z,11.50
2022-12-23T03:31:39.191Z,11.40
2022-12-23T03:33:03.127Z,11.50
2022-12-23T03:34:27.329Z,11.50
2022-12-23T03:35:51.991Z,11.50
2022-12-23T03:37:14.110Z,11.60
2022-12-23T03:38:35.787Z,11.60
2022-12-23T03:39:57.449Z,11.50
2022-12-23T03:41:18.273Z,11.40
2022-12-23T03:42:39.830Z,11.50
2022-12-23T03:44:03.152Z,11.50
2022-12-23T03:45:38.808Z,11.60
2022-12-23T03:47:03.268Z,11.70
2022-12-23T03:48:29.350Z,11.70
2022-12-23T03:49:53.367Z,11.70
2022-12-23T03:51:17.292Z,11.60
2022-12-23T03:52:40.957Z,11.60
2022-12-23T03:54:03.506Z,11.60
2022-12-23T03:55:26.569Z,11.60
2022-12-23T03:56:55.024Z,11.50
2022-12-23T03:58:22.481Z,11.50
2022-12-23T03:59:44.601Z,11.50
2022-12-23T04:01:17.997Z,11.40
2022-12-23T04:02:44.888Z,11.50
2022-12-23T04:04:11.009Z,11.50
2022-12-23T04:05:35.060Z,11.40
2022-12-23T04:06:57.344Z,11.40
2022-12-23T04:08:20.566Z,11.40
2022-12-23T04:09:41.101Z,11.30
2022-12-23T04:11:01.606Z,11.40
2022-12-23T04:12:23.232Z,11.40
2022-12-23T04:13:43.647Z,11.30
2022-12-23T04:15:10.673Z,11.30
2022-12-23T04:16:33.444Z,11.40
2022-12-23T04:17:55.945Z,11.50
2022-12-23T04:19:17.840Z,11.50
2022-12-23T04:20:38.334Z,11.60
2022-12-23T04:21:58.563Z,11.60
2022-12-23T04:23:19.144Z,11.60
2022-12-23T04:24:39.941Z,11.60
2022-12-23T04:26:00.405Z,11.60
2022-12-23T04:27:20.914Z,11.60
2022-12-23T04:28:41.477Z,11.60
2022-12-23T04:30:02.120Z,11.70
2022-12-23T04:31:23.447Z,11.70
2022-12-23T04:32:43.986Z,11.70
2022-12-23T04:34:04.633Z,11.60
2022-12-23T04:35:26.550Z,11.60
2022-12-23T04:36:46.923Z,11.60
2022-12-23T04:38:07.450Z,11.70
2022-12-23T04:39:28.156Z,11.60
2022-12-23T04:40:48.901Z,11.50
2022-12-23T04:42:09.526Z,11.60
2022-12-23T04:43:30.050Z,11.60
2022-12-23T04:44:50.779Z,11.60
2022-12-23T04:46:12.254Z,11.60
2022-12-23T04:47:33.223Z,11.60
2022-12-23T04:48:53.829Z,11.60
2022-12-23T04:50:15.373Z,11.60
2022-12-23T04:51:37.007Z,11.70
2022-12-23T04:52:57.508Z,11.70
2022-12-23T04:54:17.944Z,11.60
2022-12-23T04:55:38.609Z,11.50
2022-12-23T04:56:59.031Z,11.50
2022-12-23T04:58:19.635Z,11.50
2022-12-23T04:59:40.184Z,11.40
2022-12-23T05:01:01.782Z,11.40
2022-12-23T05:02:22.617Z,11.40
2022-12-23T05:03:43.213Z,11.40
2022-12-23T05:05:04.749Z,11.30
2022-12-23T05:06:25.135Z,11.40
2022-12-23T05:07:49.761Z,11.40
2022-12-23T05:09:10.440Z,11.30
2022-12-23T05:10:31.163Z,11.40
2022-12-23T05:11:51.571Z,11.50
2022-12-23T05:13:12.078Z,11.50
2022-12-23T05:14:32.705Z,11.40
2022-12-23T05:15:54.328Z,11.50
2022-12-23T05:17:14.946Z,11.50
2022-12-23T05:18:35.430Z,11.60
2022-12-23T05:19:56.071Z,11.40
2022-12-23T05:21:16.702Z,11.50
2022-12-23T05:22:37.248Z,11.60
2022-12-23T05:23:59.309Z,11.60
2022-12-23T05:25:19.736Z,11.70
2022-12-23T05:26:40.880Z,11.60
2022-12-23T05:28:02.677Z,11.50
2022-12-23T05:29:22.935Z,11.50
2022-12-23T05:30:43.674Z,11.60
2022-12-23T05:32:04.886Z,11.60
2022-12-23T05:33:25.959Z,11.60
2022-12-23T05:34:46.343Z,11.60
2022-12-23T05:36:07.700Z,11.70
2022-12-23T05:37:28.068Z,11.60
2022-12-23T05:38:48.802Z,11.70
2022-12-23T05:40:11.786Z,11.60
2022-12-23T05:41:32.363Z,11.60
2022-12-23T05:42:52.979Z,11.60
2022-12-23T05:44:13.567Z,11.60
2022-12-23T05:45:35.480Z,11.60
2022-12-23T05:46:55.601Z,11.60
2022-12-23T05:48:16.070Z,11.60
2022-12-23T05:49:36.675Z,11.50
2022-12-23T05:50:57.113Z,11.50
2022-12-23T05:52:17.802Z,11.50
2022-12-23T05:53:38.540Z,11.50
2022-12-23T05:54:59.156Z,11.50
2022-12-23T05:56:20.900Z,11.50
2022-12-23T05:57:41.435Z,11.50
2022-12-23T05:59:01.993Z,11.50
2022-12-23T06:00:22.746Z,11.50
2022-12-23T06:01:43.416Z,11.50
2022-12-23T06:03:04.361Z,11.50
2022-12-23T06:04:25.005Z,11.50
2022-12-23T06:05:50.108Z,11.50
2022-12-23T06:07:10.575Z,11.50
2022-12-23T06:08:31.446Z,11.50
2022-12-23T06:09:52.179Z,11.50
2022-12-23T06:11:13.039Z,11.50
2022-12-23T06:12:35.309Z,11.50
2022-12-23T06:13:56.018Z,11.50
2022-12-23T06:15:16.756Z,11.50
2022-12-23T06:16:37.556Z,11.40
2022-12-23T06:17:57.899Z,11.40
2022-12-23T06:19:18.484Z,11.40
2022-12-23T06:20:38.951Z,11.40
2022-12-23T06:21:59.399Z,11.40
2022-12-23T06:23:19.855Z,11.40
2022-12-23T06:24:40.463Z,11.40
2022-12-23T06:26:02.271Z,11.40
2022-12-23T06:27:22.736Z,11.40
2022-12-23T06:28:44.760Z,11.40
2022-12-23T06:30:06.563Z,11.40
2022-12-23T06:31:26.720Z,11.40
2022-12-23T06:32:46.959Z,11.40
2022-12-23T06:34:08.770Z,11.40
2022-12-23T06:35:29.349Z,11.40
2022-12-23T06:36:49.823Z,11.50
2022-12-23T06:38:12.362Z,11.50
2022-12-23T06:39:33.958Z,11.50
2022-12-23T06:40:54.203Z,11.50
2022-12-23T06:42:14.461Z,11.50
2022-12-23T06:43:35.075Z,11.50
2022-12-23T06:44:56.873Z,11.60
2022-12-23T06:46:17.644Z,11.50
2022-12-23T06:47:38.313Z,11.50
2022-12-23T06:48:59.007Z,11.50
2022-12-23T06:50:19.815Z,11.60
2022-12-23T06:51:40.534Z,11.70
2022-12-23T06:53:00.865Z,11.60
2022-12-23T06:54:21.500Z,11.50
2022-12-23T06:55:42.174Z,11.50
2022-12-23T06:57:02.817Z,11.60
2022-12-23T06:58:23.442Z,11.60
2022-12-23T06:59:43.876Z,11.70
2022-12-23T07:01:05.803Z,11.70
2022-12-23T07:02:26.267Z,11.70
2022-12-23T07:03:46.855Z,11.70
2022-12-23T07:05:08.747Z,11.70
2022-12-23T07:06:29.356Z,11.80
2022-12-23T07:07:49.711Z,11.80
2022-12-23T07:09:10.461Z,11.80
2022-12-23T07:10:30.916Z,11.80
2022-12-23T07:11:51.878Z,11.80
2022-12-23T07:13:12.736Z,11.90
2022-12-23T07:14:33.392Z,11.90
2022-12-23T07:15:54.414Z,11.80
2022-12-23T07:17:17.190Z,11.70
2022-12-23T07:18:37.867Z,11.70
2022-12-23T07:19:58.740Z,11.70
2022-12-23T07:21:26.764Z,11.70
2022-12-23T07:22:49.782Z,11.70
2022-12-23T07:24:10.822Z,11.70
2022-12-23T07:25:31.162Z,11.70
2022-12-23T07:26:52.037Z,11.80
2022-12-23T07:28:12.648Z,11.70
2022-12-23T07:29:33.392Z,11.70
2022-12-23T07:30:54.033Z,11.70
2022-12-23T07:32:16.124Z,11.60
2022-12-23T07:33:36.615Z,11.70
2022-12-23T07:34:57.203Z,11.70
2022-12-23T07:36:17.977Z,11.60
2022-12-23T07:37:38.824Z,11.60
2022-12-23T07:38:59.516Z,11.60
2022-12-23T07:40:20.240Z,11.60
2022-12-23T07:41:40.619Z,11.60
2022-12-23T07:43:01.263Z,11.60
2022-12-23T07:44:21.863Z,11.60
2022-12-23T07:45:42.601Z,11.60
2022-12-23T07:47:03.381Z,11.60
2022-12-23T07:48:25.951Z,11.60
2022-12-23T07:49:46.485Z,11.50
2022-12-23T07:51:07.383Z,11.50
2022-12-23T07:52:28.748Z,11.50
2022-12-23T07:53:49.880Z,11.50
2022-12-23T07:55:10.562Z,11.50
2022-12-23T07:56:31.315Z,11.50
2022-12-23T07:57:53.036Z,11.40
2022-12-23T07:59:13.391Z,11.50
2022-12-23T08:00:33.905Z,11.50
2022-12-23T08:01:54.623Z,11.40
2022-12-23T08:03:15.041Z,11.50
2022-12-23T08:04:42.557Z,11.50
2022-12-23T08:06:07.614Z,11.40
2022-12-23T08:07:27.998Z,11.40
2022-12-23T08:08:48.969Z,11.40
2022-12-23T08:10:10.534Z,11.40
2022-12-23T08:11:31.148Z,11.30
2022-12-23T08:12:51.890Z,11.30
2022-12-23T08:14:12.558Z,11.40
2022-12-23T08:15:33.205Z,11.40
2022-12-23T08:16:54.112Z,11.40
2022-12-23T08:18:14.905Z,11.40
2022-12-23T08:19:37.006Z,11.30
2022-12-23T08:20:59.760Z,11.30
2022-12-23T08:22:20.490Z,11.30
2022-12-23T08:23:41.308Z,11.30
2022-12-23T08:25:02.022Z,11.30
2022-12-23T08:26:24.269Z,11.40
2022-12-23T08:27:44.919Z,11.40
2022-12-23T08:29:05.604Z,11.30
2022-12-23T08:30:26.381Z,11.40
2022-12-23T08:31:47.121Z,11.40
2022-12-23T08:33:07.850Z,11.40
2022-12-23T08:34:28.677Z,11.40
2022-12-23T08:35:53.982Z,11.40
2022-12-23T08:37:14.742Z,11.30
2022-12-23T08:38:36.270Z,11.40
2022-12-23T08:39:57.694Z,11.40
2022-12-23T08:41:20.578Z,11.50
2022-12-23T08:42:41.315Z,11.40
2022-12-23T08:44:02.029Z,11.40
2022-12-23T08:45:22.681Z,11.30
2022-12-23T08:46:44.130Z,11.30
2022-12-23T08:48:04.690Z,11.20
2022-12-23T08:49:24.874Z,11.20
2022-12-23T08:50:46.622Z,11.20
2022-12-23T08:52:08.853Z,11.10
2022-12-23T08:53:29.550Z,11.20
2022-12-23T08:54:50.087Z,11.20
2022-12-23T08:56:12.920Z,11.20
2022-12-23T08:57:34.281Z,11.20
2022-12-23T08:58:55.584Z,11.20
2022-12-23T09:00:16.473Z,11.20
2022-12-23T09:01:36.878Z,11.10
2022-12-23T09:02:57.854Z,11.20
2022-12-23T09:04:18.381Z,11.20
2022-12-23T09:05:42.009Z,11.20
2022-12-23T09:07:02.431Z,11.20
2022-12-23T09:08:24.474Z,11.20
2022-12-23T09:09:45.102Z,11.20
2022-12-23T09:11:08.635Z,11.20
2022-12-23T09:12:29.147Z,11.20
2022-12-23T09:13:50.354Z,11.10
2022-12-23T09:15:11.262Z,11.10
2022-12-23T09:16:31.665Z,11.10
2022-12-23T09:17:52.428Z,11.10
2022-12-23T09:19:13.213Z,11.10
2022-12-23T09:20:33.836Z,11.10
2022-12-23T09:21:54.377Z,11.20
2022-12-23T09:23:14.954Z,11.20
2022-12-23T09:24:37.153Z,11.20
2022-12-23T09:25:57.815Z,11.20
2022-12-23T09:27:18.739Z,11.30
2022-12-23T09:28:39.853Z,11.20
2022-12-23T09:30:00.362Z,11.20
2022-12-23T09:31:21.674Z,11.20
2022-12-23T09:32:42.329Z,11.20
2022-12-23T09:34:03.638Z,11.20
2022-12-23T09:35:24.029Z,11.20
2022-12-23T09:36:46.281Z,11.10
2022-12-23T09:38:08.915Z,11.20
2022-12-23T09:39:29.365Z,11.30
2022-12-23T09:40:51.369Z,11.30
2022-12-23T09:42:23.168Z,11.30
2022-12-23T09:43:48.444Z,11.40
2022-12-23T09:45:16.981Z,11.30
2022-12-23T09:46:41.799Z,11.30
2022-12-23T09:48:02.936Z,11.30
2022-12-23T09:49:23.563Z,11.30
2022-12-23T09:50:44.563Z,11.30
2022-12-23T09:52:06.227Z,11.30
2022-12-23T09:53:27.325Z,11.20
2022-12-23T09:54:50.264Z,11.20
2022-12-23T09:56:16.892Z,11.30
2022-12-23T09:57:45.229Z,11.30
2022-12-23T09:59:14.972Z,11.40
2022-12-23T10:00:39.232Z,11.40
2022-12-23T10:02:04.304Z,11.30
2022-12-23T10:03:28.408Z,11.20
2022-12-23T10:04:57.157Z,11.20
2022-12-23T10:06:22.433Z,11.10
2022-12-23T10:07:45.054Z,11.10
2022-12-23T10:09:06.207Z,11.00
2022-12-23T10:10:33.527Z,11.10
2022-12-23T10:11:55.221Z,11.00
2022-12-23T10:13:23.391Z,11.00
2022-12-23T10:14:44.495Z,11.00
2022-12-23T10:16:08.108Z,11.00
2022-12-23T10:17:32.191Z,11.00
2022-12-23T10:18:55.171Z,11.00
2022-12-23T10:20:19.061Z,11.00
2022-12-23T10:21:47.135Z,11.00
2022-12-23T10:23:13.843Z,11.10
2022-12-23T10:24:36.639Z,11.10
2022-12-23T10:25:57.171Z,11.20
2022-12-23T10:27:24.535Z,11.20
2022-12-23T10:28:45.169Z,11.20
2022-12-23T10:30:42.014Z,11.20
2022-12-23T10:32:03.262Z,11.20
2022-12-23T10:33:27.193Z,11.30
2022-12-23T10:34:50.978Z,11.20
2022-12-23T10:36:15.455Z,11.10
2022-12-23T10:37:41.389Z,11.20
2022-12-23T10:39:04.945Z,11.20
2022-12-23T10:40:27.376Z,11.20
2022-12-23T10:41:57.999Z,11.30
2022-12-23T10:43:25.669Z,11.30
2022-12-23T10:45:03.750Z,11.30
2022-12-23T10:46:31.159Z,11.20
2022-12-23T10:48:00.034Z,11.10
2022-12-23T10:49:25.406Z,11.10
2022-12-23T10:50:53.573Z,11.20
2022-12-23T10:52:17.569Z,11.20
2022-12-23T10:53:41.756Z,11.30
2022-12-23T10:55:02.769Z,11.30
2022-12-23T10:56:23.551Z,11.20
2022-12-23T10:57:43.897Z,11.30
2022-12-23T10:59:07.404Z,11.30
2022-12-23T11:00:28.657Z,11.30
2022-12-23T11:01:53.265Z,11.20
2022-12-23T11:03:17.337Z,11.20
2022-12-23T11:04:39.691Z,11.20
2022-12-23T11:06:00.953Z,11.20
2022-12-23T11:09:04.545Z,11.20
2022-12-23T11:10:27.903Z,11.20
2022-12-23T11:11:56.838Z,11.20
2022-12-23T11:13:25.971Z,11.10
2022-12-23T11:14:51.896Z,11.00
2022-12-23T11:16:23.322Z,11.10
2022-12-23T11:17:58.025Z,11.00
2022-12-23T11:19:18.554Z,11.00
2022-12-23T11:20:41.036Z,11.00
2022-12-23T11:22:01.878Z,11.00
2022-12-23T11:23:24.698Z,11.00
2022-12-23T11:24:45.061Z,11.00
2022-12-23T11:26:07.643Z,11.00
2022-12-23T11:27:28.334Z,10.90
2022-12-23T11:28:51.248Z,11.00
2022-12-23T11:30:18.562Z,11.00
2022-12-23T11:31:39.486Z,10.90
2022-12-23T11:32:59.848Z,11.00
2022-12-23T11:34:22.753Z,10.90
2022-12-23T11:35:44.347Z,10.90
2022-12-23T11:37:07.415Z,11.00
2022-12-23T11:38:28.546Z,11.00
2022-12-23T11:39:49.456Z,11.00
2022-12-23T11:41:09.965Z,11.00
2022-12-23T11:42:30.920Z,11.00
2022-12-23T11:43:55.652Z,11.10
2022-12-23T11:45:23.293Z,11.10
2022-12-23T11:46:43.653Z,11.10
2022-12-23T11:48:05.407Z,11.10
2022-12-23T11:49:26.443Z,11.20
2022-12-23T11:50:58.132Z,11.20
2022-12-23T11:52:20.229Z,11.20
2022-12-23T11:53:43.378Z,11.10
2022-12-23T11:55:05.559Z,11.10
2022-12-23T11:56:26.862Z,11.10
2022-12-23T11:57:48.755Z,11.10
2022-12-23T11:59:09.904Z,11.10
2022-12-23T12:00:36.405Z,11.00
2022-12-23T12:01:58.841Z,11.00
2022-12-23T12:03:21.128Z,11.00
2022-12-23T12:04:42.316Z,11.00
2022-12-23T12:06:04.408Z,11.10
2022-12-23T12:07:25.944Z,11.10
2022-12-23T12:08:49.273Z,11.00
2022-12-23T12:10:16.073Z,11.00
2022-12-23T12:11:38.906Z,11.00
2022-12-23T12:13:02.963Z,11.00
2022-12-23T12:14:27.394Z,11.00
2022-12-23T12:15:58.034Z,11.00
2022-12-23T12:17:22.581Z,11.00
2022-12-23T12:18:44.329Z,11.00
2022-12-23T12:20:09.391Z,11.00
2022-12-23T12:21:34.005Z,11.00
2022-12-23T12:22:57.523Z,11.00
2022-12-23T12:24:21.916Z,11.00
2022-12-23T12:25:44.805Z,11.00
2022-12-23T12:27:07.389Z,11.10
2022-12-23T12:28:30.765Z,11.10
2022-12-23T12:29:54.077Z,11.10
2022-12-23T12:31:22.284Z,11.20
2022-12-23T12:32:48.730Z,11.20
2022-12-23T12:34:21.390Z,11.20
2022-12-23T12:35:44.317Z,11.30
2022-12-23T12:37:10.363Z,11.20
2022-12-23T12:38:32.186Z,11.30
2022-12-23T12:39:54.928Z,11.20
2022-12-23T12:41:18.621Z,11.20
2022-12-23T12:42:41.723Z,11.20
2022-12-23T12:44:09.977Z,11.20
2022-12-23T12:45:34.832Z,11.20
2022-12-23T12:47:04.139Z,11.10
2022-12-23T12:48:42.377Z,11.20
2022-12-23T12:50:06.708Z,11.10
2022-12-23T12:51:30.058Z,11.10
2022-12-23T12:52:51.685Z,11.10
2022-12-23T12:54:19.292Z,11.00
2022-12-23T12:55:41.593Z,11.00
2022-12-23T12:57:01.889Z,11.00
2022-12-23T12:58:23.865Z,11.10
2022-12-23T12:59:45.061Z,11.10
2022-12-23T13:01:17.447Z,11.20
2022-12-23T13:03:02.336Z,11.30
2022-12-23T13:04:42.342Z,11.30
2022-12-23T13:06:12.311Z,11.40
2022-12-23T13:07:39.731Z,11.50
2022-12-23T13:09:05.730Z,11.50
2022-12-23T13:10:35.476Z,11.50
2022-12-23T13:12:01.992Z,11.50
2022-12-23T13:13:32.307Z,11.50
2022-12-23T13:14:58.597Z,11.40
2022-12-23T13:16:29.494Z,11.20
2022-12-23T13:18:07.801Z,11.20
2022-12-23T13:19:33.601Z,11.20
2022-12-23T13:20:59.317Z,11.10
2022-12-23T13:22:25.144Z,11.20
2022-12-23T13:23:49.074Z,11.20
2022-12-23T13:25:15.853Z,11.10
2022-12-23T13:26:38.911Z,11.10
2022-12-23T13:28:06.490Z,11.10
2022-12-23T13:29:40.465Z,11.10
2022-12-23T13:31:07.019Z,11.10
2022-12-23T13:32:37.380Z,11.10
2022-12-23T13:34:16.754Z,11.20
2022-12-23T13:36:05.750Z,11.10
2022-12-23T13:37:32.648Z,11.20
2022-12-23T13:39:06.556Z,11.20
2022-12-23T13:40:35.511Z,11.30
2022-12-23T13:42:04.603Z,11.30
2022-12-23T13:43:32.595Z,11.30
2022-12-23T13:44:54.142Z,11.20
2022-12-23T13:46:21.860Z,11.20
2022-12-23T13:47:47.952Z,11.20
2022-12-23T13:49:15.467Z,11.10
2022-12-23T13:50:40.236Z,11.10
2022-12-23T13:52:07.133Z,11.10
2022-12-23T13:53:40.146Z,11.20
2022-12-23T13:55:11.044Z,11.20
2022-12-23T13:56:38.792Z,11.20
2022-12-23T13:58:03.349Z,11.20
2022-12-23T13:59:23.604Z,11.20
2022-12-23T14:00:44.304Z,11.10
2022-12-23T14:02:41.083Z,11.20
2022-12-23T14:04:31.984Z,11.20
2022-12-23T14:05:53.390Z,11.20
2022-12-23T14:07:19.521Z,11.20
2022-12-23T14:08:41.977Z,11.20
2022-12-23T14:10:12.051Z,11.20
2022-12-23T14:11:33.731Z,11.20
2022-12-23T14:13:00.652Z,11.20
2022-12-23T14:14:23.755Z,11.20
2022-12-23T14:16:30.628Z,11.10
2022-12-23T14:18:04.291Z,11.10
2022-12-23T14:19:46.234Z,11.10
2022-12-23T14:21:12.313Z,11.10
2022-12-23T14:22:44.084Z,11.10
2022-12-23T14:24:12.364Z,11.10
2022-12-23T14:25:51.777Z,11.10
2022-12-23T14:27:37.120Z,11.20
2022-12-23T14:29:20.582Z,11.10
2022-12-23T14:30:42.343Z,11.10
2022-12-23T14:32:03.171Z,11.20
2022-12-23T14:33:25.734Z,11.10
2022-12-23T14:35:14.941Z,11.10
2022-12-23T14:36:35.662Z,11.10
2022-12-23T14:38:10.241Z,11.20
2022-12-23T14:39:32.163Z,11.20
2022-12-23T14:41:35.603Z,11.20
2022-12-23T14:43:25.517Z,11.10
2022-12-23T14:44:47.681Z,11.20
2022-12-23T14:46:40.937Z,11.20
2022-12-23T14:48:02.465Z,11.20
2022-12-23T14:49:46.370Z,11.20
2022-12-23T14:51:22.580Z,11.10
2022-12-23T14:52:59.002Z,11.20
2022-12-23T14:54:37.440Z,11.20
2022-12-23T14:56:21.565Z,11.20
2022-12-23T14:57:42.567Z,11.10
2022-12-23T14:59:05.779Z,11.20
2022-12-23T15:00:26.315Z,11.20
2022-12-23T15:01:48.128Z,11.20
2022-12-23T15:03:10.298Z,11.20
2022-12-23T15:04:37.045Z,11.20
2022-12-23T15:05:59.424Z,11.10
2022-12-23T15:07:27.032Z,11.20
2022-12-23T15:08:50.863Z,11.30
2022-12-23T15:10:17.974Z,11.30
2022-12-23T15:11:40.181Z,11.30
2022-12-23T15:13:01.622Z,11.30
2022-12-23T15:14:31.549Z,11.20
2022-12-23T15:15:58.968Z,11.20
2022-12-23T15:17:26.063Z,11.10
2022-12-23T15:18:53.821Z,11.20
2022-12-23T15:20:16.977Z,11.20
2022-12-23T15:21:37.495Z,11.30
2022-12-23T15:23:02.040Z,11.30
2022-12-23T15:24:22.941Z,11.40
2022-12-23T15:25:45.448Z,11.40
2022-12-23T15:28:46.711Z,11.40
2022-12-23T15:30:11.791Z,11.50
2022-12-23T15:31:35.380Z,11.60
2022-12-23T15:32:58.183Z,11.60
2022-12-23T15:34:22.814Z,11.60
2022-12-23T15:35:43.305Z,11.60
2022-12-23T15:37:04.154Z,11.60
2022-12-23T15:38:30.182Z,11.70
2022-12-23T15:39:57.222Z,11.70
2022-12-23T15:41:20.835Z,11.70
2022-12-23T15:42:47.715Z,11.70
2022-12-23T15:44:11.379Z,11.70
2022-12-23T15:45:37.503Z,11.80
2022-12-23T15:46:58.365Z,11.80
2022-12-23T15:48:24.173Z,11.90
2022-12-23T15:49:44.956Z,11.80
2022-12-23T15:51:11.122Z,11.80
2022-12-23T15:52:32.996Z,11.80
2022-12-23T15:53:56.337Z,11.70
2022-12-23T15:55:22.849Z,11.70
2022-12-23T15:56:48.132Z,11.60
2022-12-23T15:58:17.625Z,11.70
2022-12-23T15:59:38.897Z,11.70
2022-12-23T16:01:00.157Z,11.60
2022-12-23T16:04:08.269Z,11.60
2022-12-23T16:05:32.099Z,11.70
2022-12-23T16:06:54.084Z,11.60
2022-12-23T16:08:28.584Z,11.60
2022-12-23T16:09:53.613Z,11.60
2022-12-23T16:11:16.225Z,11.60
2022-12-23T16:12:37.341Z,11.60
2022-12-23T16:14:00.299Z,11.60
2022-12-23T16:15:25.022Z,11.70
2022-12-23T16:16:45.693Z,11.70
2022-12-23T16:18:13.652Z,11.70
2022-12-23T16:19:38.321Z,11.70
2022-12-23T16:21:00.850Z,11.80
2022-12-23T16:22:26.601Z,11.80
2022-12-23T16:23:50.925Z,11.80
2022-12-23T16:25:17.808Z,11.80
2022-12-23T16:26:41.705Z,11.80
2022-12-23T16:28:03.877Z,11.90
2022-12-23T16:29:24.461Z,11.90
2022-12-23T16:30:44.650Z,11.90
2022-12-23T16:32:05.554Z,12.00
2022-12-23T16:33:33.947Z,12.00
2022-12-23T16:34:54.569Z,12.00
2022-12-23T16:36:20.244Z,12.10
2022-12-23T16:37:44.553Z,12.00
2022-12-23T16:39:17.369Z,12.00
2022-12-23T16:40:39.872Z,12.10
2022-12-23T16:42:00.562Z,12.20
2022-12-23T16:43:23.298Z,12.20
2022-12-23T16:44:44.095Z,12.20
2022-12-23T16:46:05.397Z,12.10
2022-12-23T16:47:25.977Z,12.10
2022-12-23T16:48:49.753Z,12.10
2022-12-23T16:50:12.383Z,12.20
2022-12-23T16:51:33.251Z,12.30
2022-12-23T16:52:54.829Z,12.30
2022-12-23T16:54:17.135Z,12.30
2022-12-23T16:55:42.882Z,12.40
2022-12-23T16:57:06.645Z,12.40
2022-12-23T16:58:27.416Z,12.40
2022-12-23T16:59:48.219Z,12.40
2022-12-23T17:01:13.696Z,12.40
2022-12-23T17:02:34.363Z,12.40
2022-12-23T17:03:55.199Z,12.50
2022-12-23T17:05:16.687Z,12.40
2022-12-23T17:06:37.555Z,12.40
2022-12-23T17:07:58.182Z,12.50
2022-12-23T17:09:18.891Z,12.50
2022-12-23T17:10:41.902Z,12.50
2022-12-23T17:12:02.524Z,12.50
2022-12-23T17:13:23.053Z,12.50
2022-12-23T17:14:43.786Z,12.50
2022-12-23T17:16:04.849Z,12.60
2022-12-23T17:17:25.476Z,12.60
2022-12-23T17:18:46.281Z,12.60
2022-12-23T17:20:08.255Z,12.50
2022-12-23T17:21:30.614Z,12.50
2022-12-23T17:22:55.422Z,12.50
2022-12-23T17:24:21.639Z,12.50
2022-12-23T17:25:43.496Z,12.50
2022-12-23T17:27:08.646Z,12.60
2022-12-23T17:28:30.986Z,12.50
2022-12-23T17:29:51.601Z,12.60
2022-12-23T17:31:15.545Z,12.60
2022-12-23T17:32:37.446Z,12.60
2022-12-23T17:33:58.013Z,12.50
2022-12-23T17:35:18.879Z,12.50
2022-12-23T17:36:44.572Z,12.50
2022-12-23T17:38:11.605Z,12.50
2022-12-23T17:39:32.350Z,12.60
2022-12-23T17:40:54.362Z,12.60
2022-12-23T17:42:23.283Z,12.60
2022-12-23T17:43:45.870Z,12.70
2022-12-23T17:45:10.137Z,12.60
2022-12-23T17:46:31.069Z,12.50
2022-12-23T17:47:51.766Z,12.50
2022-12-23T17:49:12.566Z,12.50
2022-12-23T17:50:34.487Z,12.50
2022-12-23T17:51:55.000Z,12.40
2022-12-23T17:53:16.640Z,12.40
2022-12-23T17:54:36.980Z,12.40
2022-12-23T17:55:58.978Z,12.40
2022-12-23T17:57:21.521Z,12.50
2022-12-23T17:58:42.002Z,12.30
2022-12-23T18:00:02.971Z,12.40
2022-12-23T18:01:25.657Z,12.40
2022-12-23T18:02:46.801Z,12.40
2022-12-23T18:04:07.558Z,12.50
2022-12-23T18:05:30.230Z,12.50